sensor_id;sensor_type;location;lat;lon;timestamp;temperature;humidity
57030;DHT22;42920;45.306;20.448;2022-11-21T00:00:28;205.20;2252.80
57030;DHT22;42920;45.306;20.448;2022-11-21T00:02:58;205.20;2252.80
57030;DHT22;42920;45.306;20.448;2022-11-21T00:05:25;205.10;2252.80
57030;DHT22;42920;45.306;20.448;2022-11-21T00:07:53;205.20;2252.80
57030;DHT22;42920;45.306;20.448;2022-11-21T00:10:18;205.20;2252.80
57030;DHT22;42920;45.306;20.448;2022-11-21T00:12:44;205.10;2252.80
57030;DHT22;42920;45.306;20.448;2022-11-21T00:15:10;205.20;2252.80
57030;DHT22;42920;45.306;20.448;2022-11-21T00:17:35;205.10;2252.80
57030;DHT22;42920;45.306;20.448;2022-11-21T00:20:01;205.20;2252.80
57030;DHT22;42920;45.306;20.448;2022-11-21T00:22:26;205.10;2252.80
57030;DHT22;42920;45.306;20.448;2022-11-21T00:24:52;205.20;2252.80
57030;DHT22;42920;45.306;20.448;2022-11-21T00:27:17;205.10;2252.80
57030;DHT22;42920;45.306;20.448;2022-11-21T00:29:43;205.00;2252.80
57030;DHT22;42920;45.306;20.448;2022-11-21T00:32:08;205.00;2252.80
57030;DHT22;42920;45.306;20.448;2022-11-21T00:34:34;205.00;2252.80
57030;DHT22;42920;45.306;20.448;2022-11-21T00:36:59;204.90;2252.80
57030;DHT22;42920;45.306;20.448;2022-11-21T00:39:25;204.90;2252.80
57030;DHT22;42920;45.306;20.448;2022-11-21T00:41:51;204.90;2252.80
57030;DHT22;42920;45.306;20.448;2022-11-21T00:44:16;204.90;2252.80
57030;DHT22;42920;45.306;20.448;2022-11-21T00:46:42;204.90;2252.80
57030;DHT22;42920;45.306;20.448;2022-11-21T00:49:07;204.80;2252.80
57030;DHT22;42920;45.306;20.448;2022-11-21T00:51:33;204.80;2252.80
57030;DHT22;42920;45.306;20.448;2022-11-21T00:53:58;204.80;2252.80
57030;DHT22;42920;45.306;20.448;2022-11-21T00:56:24;180.10;2252.80
57030;DHT22;42920;45.306;20.448;2022-11-21T00:58:49;180.10;2252.80
57030;DHT22;42920;45.306;20.448;2022-11-21T01:01:15;204.80;2252.80
57030;DHT22;42920;45.306;20.448;2022-11-21T01:03:41;180.10;2252.80
57030;DHT22;42920;45.306;20.448;2022-11-21T01:06:07;180.10;2252.80
57030;DHT22;42920;45.306;20.448;2022-11-21T01:08:34;179.90;2252.80
57030;DHT22;42920;45.306;20.448;2022-11-21T01:11:03;180.10;2252.80
57030;DHT22;42920;45.306;20.448;2022-11-21T01:13:29;180.00;2252.80
57030;DHT22;42920;45.306;20.448;2022-11-21T01:15:54;180.10;2252.80
57030;DHT22;42920;45.306;20.448;2022-11-21T01:18:20;180.10;2252.80
57030;DHT22;42920;45.306;20.448;2022-11-21T01:20:45;180.10;2252.80
57030;DHT22;42920;45.306;20.448;2022-11-21T01:23:11;204.80;2252.80
57030;DHT22;42920;45.306;20.448;2022-11-21T01:25:37;204.80;2252.80
57030;DHT22;42920;45.306;20.448;2022-11-21T01:28:02;180.00;2252.80
57030;DHT22;42920;45.306;20.448;2022-11-21T01:30:28;180.00;2252.80
57030;DHT22;42920;45.306;20.448;2022-11-21T01:32:53;180.00;2252.80
57030;DHT22;42920;45.306;20.448;2022-11-21T01:35:19;180.00;2252.80
57030;DHT22;42920;45.306;20.448;2022-11-21T01:37:48;180.00;2252.80
57030;DHT22;42920;45.306;20.448;2022-11-21T01:40:13;180.00;2252.80
57030;DHT22;42920;45.306;20.448;2022-11-21T01:42:43;179.90;2252.80
57030;DHT22;42920;45.306;20.448;2022-11-21T01:47:53;179.90;2252.80
57030;DHT22;42920;45.306;20.448;2022-11-21T01:50:19;179.90;2252.80
57030;DHT22;42920;45.306;20.448;2022-11-21T01:52:45;179.90;2252.80
57030;DHT22;42920;45.306;20.448;2022-11-21T01:55:10;180.00;2252.80
57030;DHT22;42920;45.306;20.448;2022-11-21T01:57:40;179.90;2252.80
57030;DHT22;42920;45.306;20.448;2022-11-21T02:00:07;179.90;2252.80
57030;DHT22;42920;45.306;20.448;2022-11-21T02:02:36;180.00;2252.80
57030;DHT22;42920;45.306;20.448;2022-11-21T02:05:02;180.00;2252.80
57030;DHT22;42920;45.306;20.448;2022-11-21T02:07:29;179.90;2252.80
57030;DHT22;42920;45.306;20.448;2022-11-21T02:09:57;179.90;2252.80
57030;DHT22;42920;45.306;20.448;2022-11-21T02:14:50;179.90;2252.80
57030;DHT22;42920;45.306;20.448;2022-11-21T02:17:16;179.90;2252.80
57030;DHT22;42920;45.306;20.448;2022-11-21T02:19:53;180.00;2252.80
57030;DHT22;42920;45.306;20.448;2022-11-21T02:22:23;179.90;2252.80
57030;DHT22;42920;45.306;20.448;2022-11-21T02:27:27;179.80;2252.80
57030;DHT22;42920;45.306;20.448;2022-11-21T02:29:52;205.00;2252.80
57030;DHT22;42920;45.306;20.448;2022-11-21T02:32:21;179.80;2252.80
57030;DHT22;42920;45.306;20.448;2022-11-21T02:34:47;179.80;2252.80
57030;DHT22;42920;45.306;20.448;2022-11-21T02:37:13;179.80;2252.80
57030;DHT22;42920;45.306;20.448;2022-11-21T02:39:38;179.70;2252.80
57030;DHT22;42920;45.306;20.448;2022-11-21T02:42:06;179.70;2252.80
57030;DHT22;42920;45.306;20.448;2022-11-21T02:44:37;179.90;2252.80
57030;DHT22;42920;45.306;20.448;2022-11-21T02:47:04;179.90;2252.80
57030;DHT22;42920;45.306;20.448;2022-11-21T02:49:33;179.80;2252.80
57030;DHT22;42920;45.306;20.448;2022-11-21T02:52:02;179.80;2252.80
57030;DHT22;42920;45.306;20.448;2022-11-21T02:54:27;179.80;2252.80
57030;DHT22;42920;45.306;20.448;2022-11-21T02:56:53;179.70;2252.80
57030;DHT22;42920;45.306;20.448;2022-11-21T02:59:19;179.90;2252.80
57030;DHT22;42920;45.306;20.448;2022-11-21T03:01:45;179.90;2252.80
57030;DHT22;42920;45.306;20.448;2022-11-21T03:04:12;179.80;2252.80
57030;DHT22;42920;45.306;20.448;2022-11-21T03:06:37;179.90;2252.80
57030;DHT22;42920;45.306;20.448;2022-11-21T03:09:03;180.00;2252.80
57030;DHT22;42920;45.306;20.448;2022-11-21T03:11:28;179.90;2252.80
57030;DHT22;42920;45.306;20.448;2022-11-21T03:13:54;180.10;2252.80
57030;DHT22;42920;45.306;20.448;2022-11-21T03:16:19;180.10;2252.80
57030;DHT22;42920;45.306;20.448;2022-11-21T03:18:45;180.00;2252.80
57030;DHT22;42920;45.306;20.448;2022-11-21T03:21:10;180.00;2252.80
57030;DHT22;42920;45.306;20.448;2022-11-21T03:23:36;179.80;2252.80
57030;DHT22;42920;45.306;20.448;2022-11-21T03:26:02;179.90;2252.80
57030;DHT22;42920;45.306;20.448;2022-11-21T03:28:27;179.90;2252.80
57030;DHT22;42920;45.306;20.448;2022-11-21T03:30:53;179.90;2252.80
57030;DHT22;42920;45.306;20.448;2022-11-21T03:33:18;179.90;2252.80
57030;DHT22;42920;45.306;20.448;2022-11-21T03:35:44;179.90;2252.80
57030;DHT22;42920;45.306;20.448;2022-11-21T03:38:09;180.00;2252.80
57030;DHT22;42920;45.306;20.448;2022-11-21T03:40:35;179.80;2252.80
57030;DHT22;42920;45.306;20.448;2022-11-21T03:43:04;179.70;2252.80
57030;DHT22;42920;45.306;20.448;2022-11-21T03:45:30;179.70;2252.80
57030;DHT22;42920;45.306;20.448;2022-11-21T03:47:55;179.90;2252.80
57030;DHT22;42920;45.306;20.448;2022-11-21T03:50:21;179.80;2252.80
57030;DHT22;42920;45.306;20.448;2022-11-21T03:52:47;179.70;2252.80
57030;DHT22;42920;45.306;20.448;2022-11-21T03:55:12;179.90;2252.80
57030;DHT22;42920;45.306;20.448;2022-11-21T03:57:38;179.90;2252.80
57030;DHT22;42920;45.306;20.448;2022-11-21T04:00:04;179.70;2252.80
57030;DHT22;42920;45.306;20.448;2022-11-21T04:02:29;179.80;2252.80
57030;DHT22;42920;45.306;20.448;2022-11-21T04:04:55;179.70;2252.80
57030;DHT22;42920;45.306;20.448;2022-11-21T04:07:20;179.70;2252.80
57030;DHT22;42920;45.306;20.448;2022-11-21T04:09:46;179.70;2252.80
57030;DHT22;42920;45.306;20.448;2022-11-21T04:12:11;179.80;2252.80
57030;DHT22;42920;45.306;20.448;2022-11-21T04:14:37;179.80;2252.80
57030;DHT22;42920;45.306;20.448;2022-11-21T04:17:02;179.90;2252.80
57030;DHT22;42920;45.306;20.448;2022-11-21T04:19:28;179.90;2252.80
57030;DHT22;42920;45.306;20.448;2022-11-21T04:21:54;179.80;2252.80
57030;DHT22;42920;45.306;20.448;2022-11-21T04:24:19;179.80;2252.80
57030;DHT22;42920;45.306;20.448;2022-11-21T04:26:45;179.70;2252.80
57030;DHT22;42920;45.306;20.448;2022-11-21T04:29:10;179.80;2252.80
57030;DHT22;42920;45.306;20.448;2022-11-21T04:31:36;179.80;2252.80
57030;DHT22;42920;45.306;20.448;2022-11-21T04:34:02;179.80;2252.80
57030;DHT22;42920;45.306;20.448;2022-11-21T04:36:28;180.10;2252.80
57030;DHT22;42920;45.306;20.448;2022-11-21T04:38:53;204.80;2252.80
57030;DHT22;42920;45.306;20.448;2022-11-21T04:41:19;204.80;2252.80
57030;DHT22;42920;45.306;20.448;2022-11-21T04:43:44;204.80;2252.80
57030;DHT22;42920;45.306;20.448;2022-11-21T04:46:10;204.80;2252.80
57030;DHT22;42920;45.306;20.448;2022-11-21T04:48:36;204.80;2252.80
57030;DHT22;42920;45.306;20.448;2022-11-21T04:51:01;180.10;2252.80
57030;DHT22;42920;45.306;20.448;2022-11-21T04:53:27;204.80;2252.80
57030;DHT22;42920;45.306;20.448;2022-11-21T04:55:52;204.80;2252.80
57030;DHT22;42920;45.306;20.448;2022-11-21T04:58:18;204.80;2252.80
57030;DHT22;42920;45.306;20.448;2022-11-21T05:00:43;204.80;2252.80
57030;DHT22;42920;45.306;20.448;2022-11-21T05:03:09;204.80;2252.80
57030;DHT22;42920;45.306;20.448;2022-11-21T05:05:35;204.80;2252.80
57030;DHT22;42920;45.306;20.448;2022-11-21T05:08:00;204.80;2252.80
57030;DHT22;42920;45.306;20.448;2022-11-21T05:10:26;180.10;2252.80
57030;DHT22;42920;45.306;20.448;2022-11-21T05:12:55;180.10;2252.80
57030;DHT22;42920;45.306;20.448;2022-11-21T05:15:40;180.10;2252.80
57030;DHT22;42920;45.306;20.448;2022-11-21T05:18:05;180.00;2252.80
57030;DHT22;42920;45.306;20.448;2022-11-21T05:20:31;180.00;2252.80
57030;DHT22;42920;45.306;20.448;2022-11-21T05:22:56;180.00;2252.80
57030;DHT22;42920;45.306;20.448;2022-11-21T05:25:22;180.00;2252.80
57030;DHT22;42920;45.306;20.448;2022-11-21T05:27:47;180.00;2252.80
57030;DHT22;42920;45.306;20.448;2022-11-21T05:30:13;180.10;2252.80
57030;DHT22;42920;45.306;20.448;2022-11-21T05:32:39;180.10;2252.80
57030;DHT22;42920;45.306;20.448;2022-11-21T05:35:04;204.80;2252.80
57030;DHT22;42920;45.306;20.448;2022-11-21T05:37:31;180.10;2252.80
57030;DHT22;42920;45.306;20.448;2022-11-21T05:39:57;180.10;2252.80
57030;DHT22;42920;45.306;20.448;2022-11-21T05:42:22;180.10;2252.80
57030;DHT22;42920;45.306;20.448;2022-11-21T05:45:08;180.10;2252.80
57030;DHT22;42920;45.306;20.448;2022-11-21T05:47:34;180.10;2252.80
57030;DHT22;42920;45.306;20.448;2022-11-21T05:49:59;180.00;2252.80
57030;DHT22;42920;45.306;20.448;2022-11-21T05:52:25;180.10;2252.80
57030;DHT22;42920;45.306;20.448;2022-11-21T05:54:52;180.10;2252.80
57030;DHT22;42920;45.306;20.448;2022-11-21T05:57:17;180.10;2252.80
57030;DHT22;42920;45.306;20.448;2022-11-21T05:59:43;179.90;2252.80
57030;DHT22;42920;45.306;20.448;2022-11-21T06:02:08;180.10;2252.80
57030;DHT22;42920;45.306;20.448;2022-11-21T06:04:52;180.10;2252.80
57030;DHT22;42920;45.306;20.448;2022-11-21T06:07:18;180.10;2252.80
57030;DHT22;42920;45.306;20.448;2022-11-21T06:09:43;180.00;2252.80
57030;DHT22;42920;45.306;20.448;2022-11-21T06:12:09;180.10;2252.80
57030;DHT22;42920;45.306;20.448;2022-11-21T06:14:34;180.00;2252.80
57030;DHT22;42920;45.306;20.448;2022-11-21T06:17:00;180.00;2252.80
57030;DHT22;42920;45.306;20.448;2022-11-21T06:19:25;180.00;2252.80
57030;DHT22;42920;45.306;20.448;2022-11-21T06:21:51;180.00;2252.80
57030;DHT22;42920;45.306;20.448;2022-11-21T06:24:16;180.00;2252.80
57030;DHT22;42920;45.306;20.448;2022-11-21T06:26:42;180.10;2252.80
57030;DHT22;42920;45.306;20.448;2022-11-21T06:29:09;180.00;2252.80
57030;DHT22;42920;45.306;20.448;2022-11-21T06:31:35;180.00;2252.80
57030;DHT22;42920;45.306;20.448;2022-11-21T06:34:00;180.00;2252.80
57030;DHT22;42920;45.306;20.448;2022-11-21T06:36:26;180.00;2252.80
57030;DHT22;42920;45.306;20.448;2022-11-21T06:38:52;179.90;2252.80
57030;DHT22;42920;45.306;20.448;2022-11-21T06:41:18;180.00;2252.80
57030;DHT22;42920;45.306;20.448;2022-11-21T06:43:44;180.00;2252.80
57030;DHT22;42920;45.306;20.448;2022-11-21T06:46:10;180.00;2252.80
57030;DHT22;42920;45.306;20.448;2022-11-21T06:48:36;180.00;2252.80
57030;DHT22;42920;45.306;20.448;2022-11-21T06:53:39;180.00;2252.80
57030;DHT22;42920;45.306;20.448;2022-11-21T06:56:05;180.00;2252.80
57030;DHT22;42920;45.306;20.448;2022-11-21T06:58:30;180.00;2252.80
57030;DHT22;42920;45.306;20.448;2022-11-21T07:00:56;180.00;2252.80
57030;DHT22;42920;45.306;20.448;2022-11-21T07:03:22;180.10;2252.80
57030;DHT22;42920;45.306;20.448;2022-11-21T07:05:48;180.10;2252.80
57030;DHT22;42920;45.306;20.448;2022-11-21T07:08:13;205.10;2252.80
57030;DHT22;42920;45.306;20.448;2022-11-21T07:10:39;180.00;2252.80
57030;DHT22;42920;45.306;20.448;2022-11-21T07:13:05;180.10;2252.80
57030;DHT22;42920;45.306;20.448;2022-11-21T07:15:46;180.00;2252.80
57030;DHT22;42920;45.306;20.448;2022-11-21T07:18:12;180.10;2252.80
57030;DHT22;42920;45.306;20.448;2022-11-21T07:20:38;180.10;2252.80
57030;DHT22;42920;45.306;20.448;2022-11-21T07:23:04;180.10;2252.80
57030;DHT22;42920;45.306;20.448;2022-11-21T07:25:30;180.10;2252.80
57030;DHT22;42920;45.306;20.448;2022-11-21T07:27:59;180.10;2252.80
57030;DHT22;42920;45.306;20.448;2022-11-21T07:30:24;180.10;2252.80
57030;DHT22;42920;45.306;20.448;2022-11-21T07:32:54;180.10;2252.80
57030;DHT22;42920;45.306;20.448;2022-11-21T07:35:20;180.10;2252.80
57030;DHT22;42920;45.306;20.448;2022-11-21T07:37:45;204.80;2252.80
57030;DHT22;42920;45.306;20.448;2022-11-21T07:40:11;204.80;2252.80
57030;DHT22;42920;45.306;20.448;2022-11-21T07:42:37;180.10;2252.80
57030;DHT22;42920;45.306;20.448;2022-11-21T07:45:02;204.90;2252.80
57030;DHT22;42920;45.306;20.448;2022-11-21T07:47:28;204.90;2252.80
57030;DHT22;42920;45.306;20.448;2022-11-21T07:49:54;205.00;2252.80
57030;DHT22;42920;45.306;20.448;2022-11-21T07:52:19;205.00;2252.80
57030;DHT22;42920;45.306;20.448;2022-11-21T07:54:45;204.80;2252.80
57030;DHT22;42920;45.306;20.448;2022-11-21T07:57:10;204.90;2252.80
57030;DHT22;42920;45.306;20.448;2022-11-21T07:59:36;205.00;2252.80
57030;DHT22;42920;45.306;20.448;2022-11-21T08:02:02;204.90;2252.80
57030;DHT22;42920;45.306;20.448;2022-11-21T08:04:28;204.90;2252.80
57030;DHT22;42920;45.306;20.448;2022-11-21T08:06:53;205.00;2252.80
57030;DHT22;42920;45.306;20.448;2022-11-21T08:09:19;205.10;2252.80
57030;DHT22;42920;45.306;20.448;2022-11-21T08:11:45;205.10;2252.80
57030;DHT22;42920;45.306;20.448;2022-11-21T08:14:10;205.10;2252.80
57030;DHT22;42920;45.306;20.448;2022-11-21T08:16:36;205.10;2252.80
57030;DHT22;42920;45.306;20.448;2022-11-21T08:19:01;205.10;2252.80
57030;DHT22;42920;45.306;20.448;2022-11-21T08:21:27;205.20;2252.80
57030;DHT22;42920;45.306;20.448;2022-11-21T08:23:53;205.20;2252.80
57030;DHT22;42920;45.306;20.448;2022-11-21T08:26:19;205.20;2252.80
57030;DHT22;42920;45.306;20.448;2022-11-21T08:28:45;205.00;2252.80
57030;DHT22;42920;45.306;20.448;2022-11-21T08:31:10;205.10;2252.80
57030;DHT22;42920;45.306;20.448;2022-11-21T08:33:36;205.10;2252.80
57030;DHT22;42920;45.306;20.448;2022-11-21T08:36:05;205.10;2252.80
57030;DHT22;42920;45.306;20.448;2022-11-21T08:38:31;205.00;2252.80
57030;DHT22;42920;45.306;20.448;2022-11-21T08:40:56;205.20;2252.80
57030;DHT22;42920;45.306;20.448;2022-11-21T08:43:40;205.20;2252.80
57030;DHT22;42920;45.306;20.448;2022-11-21T08:46:06;205.30;2252.80
57030;DHT22;42920;45.306;20.448;2022-11-21T08:48:32;205.30;2252.80
57030;DHT22;42920;45.306;20.448;2022-11-21T08:50:58;205.30;2252.80
57030;DHT22;42920;45.306;20.448;2022-11-21T08:53:23;205.40;2252.80
57030;DHT22;42920;45.306;20.448;2022-11-21T08:55:49;205.40;2252.80
57030;DHT22;42920;45.306;20.448;2022-11-21T08:58:15;205.30;2252.80
57030;DHT22;42920;45.306;20.448;2022-11-21T09:00:40;205.40;2252.80
57030;DHT22;42920;45.306;20.448;2022-11-21T09:03:06;205.40;2252.80
57030;DHT22;42920;45.306;20.448;2022-11-21T09:05:32;205.40;2252.80
57030;DHT22;42920;45.306;20.448;2022-11-21T09:07:58;205.40;2252.80
57030;DHT22;42920;45.306;20.448;2022-11-21T09:10:24;205.50;2252.80
57030;DHT22;42920;45.306;20.448;2022-11-21T09:12:50;205.60;2252.80
57030;DHT22;42920;45.306;20.448;2022-11-21T09:15:15;205.60;2252.80
57030;DHT22;42920;45.306;20.448;2022-11-21T09:18:00;205.60;2252.80
57030;DHT22;42920;45.306;20.448;2022-11-21T09:20:29;205.60;2252.80
57030;DHT22;42920;45.306;20.448;2022-11-21T09:22:54;205.50;2252.80
57030;DHT22;42920;45.306;20.448;2022-11-21T09:25:20;205.50;2252.80
57030;DHT22;42920;45.306;20.448;2022-11-21T09:27:46;205.60;2252.80
57030;DHT22;42920;45.306;20.448;2022-11-21T09:30:11;205.50;2252.80
57030;DHT22;42920;45.306;20.448;2022-11-21T09:32:37;205.50;2252.80
57030;DHT22;42920;45.306;20.448;2022-11-21T09:35:04;205.50;2252.80
57030;DHT22;42920;45.306;20.448;2022-11-21T09:37:35;205.60;2252.80
57030;DHT22;42920;45.306;20.448;2022-11-21T09:40:01;205.70;2252.80
57030;DHT22;42920;45.306;20.448;2022-11-21T09:47:54;205.60;2252.80
57030;DHT22;42920;45.306;20.448;2022-11-21T09:50:23;205.60;2252.80
57030;DHT22;42920;45.306;20.448;2022-11-21T09:53:01;205.70;2252.80
57030;DHT22;42920;45.306;20.448;2022-11-21T09:57:53;230.40;2252.80
57030;DHT22;42920;45.306;20.448;2022-11-21T10:00:22;230.50;2252.80
57030;DHT22;42920;45.306;20.448;2022-11-21T10:02:49;230.60;2252.80
57030;DHT22;42920;45.306;20.448;2022-11-21T10:05:15;230.60;2252.80
57030;DHT22;42920;45.306;20.448;2022-11-21T10:07:41;230.60;2252.80
57030;DHT22;42920;45.306;20.448;2022-11-21T10:15:55;230.60;2252.80
57030;DHT22;42920;45.306;20.448;2022-11-21T10:26:22;230.70;2252.80
57030;DHT22;42920;45.306;20.448;2022-11-21T10:28:56;230.70;2252.80
57030;DHT22;42920;45.306;20.448;2022-11-21T10:31:23;230.80;2252.80
57030;DHT22;42920;45.306;20.448;2022-11-21T10:33:50;230.80;2252.80
57030;DHT22;42920;45.306;20.448;2022-11-21T10:38:45;230.90;2252.80
57030;DHT22;42920;45.306;20.448;2022-11-21T10:41:18;230.90;2252.80
57030;DHT22;42920;45.306;20.448;2022-11-21T10:44:03;230.90;2252.80
57030;DHT22;42920;45.306;20.448;2022-11-21T10:46:58;231.00;2252.80
57030;DHT22;42920;45.306;20.448;2022-11-21T10:49:24;231.10;2252.80
57030;DHT22;42920;45.306;20.448;2022-11-21T10:51:52;231.00;2252.80
57030;DHT22;42920;45.306;20.448;2022-11-21T10:54:21;231.00;2252.80
57030;DHT22;42920;45.306;20.448;2022-11-21T10:59:25;231.00;2252.80
57030;DHT22;42920;45.306;20.448;2022-11-21T11:02:09;231.10;2252.80
57030;DHT22;42920;45.306;20.448;2022-11-21T11:04:45;230.90;2252.80
57030;DHT22;42920;45.306;20.448;2022-11-21T11:09:45;231.00;2252.80
57030;DHT22;42920;45.306;20.448;2022-11-21T11:15:21;231.10;2252.80
57030;DHT22;42920;45.306;20.448;2022-11-21T11:17:48;231.10;2252.80
57030;DHT22;42920;45.306;20.448;2022-11-21T11:22:59;231.00;2252.80
57030;DHT22;42920;45.306;20.448;2022-11-21T11:25:25;231.10;2252.80
57030;DHT22;42920;45.306;20.448;2022-11-21T11:27:50;231.10;2252.80
57030;DHT22;42920;45.306;20.448;2022-11-21T11:30:18;231.30;2252.80
57030;DHT22;42920;45.306;20.448;2022-11-21T11:32:44;256.00;2252.80
57030;DHT22;42920;45.306;20.448;2022-11-21T11:37:41;256.00;2252.80
57030;DHT22;42920;45.306;20.448;2022-11-21T11:48:08;231.30;2252.80
57030;DHT22;42920;45.306;20.448;2022-11-21T11:50:40;256.00;2252.80
57030;DHT22;42920;45.306;20.448;2022-11-21T11:58:01;256.10;2252.80
57030;DHT22;42920;45.306;20.448;2022-11-21T12:03:23;256.10;2252.80
57030;DHT22;42920;45.306;20.448;2022-11-21T12:05:51;256.00;2252.80
57030;DHT22;42920;45.306;20.448;2022-11-21T12:08:23;256.00;2252.80
57030;DHT22;42920;45.306;20.448;2022-11-21T12:10:53;231.30;2252.80
57030;DHT22;42920;45.306;20.448;2022-11-21T12:13:40;231.30;2252.80
57030;DHT22;42920;45.306;20.448;2022-11-21T12:16:08;231.30;2252.80
57030;DHT22;42920;45.306;20.448;2022-11-21T12:18:52;231.20;2252.80
57030;DHT22;42920;45.306;20.448;2022-11-21T12:21:19;231.20;2252.80
57030;DHT22;42920;45.306;20.448;2022-11-21T12:23:49;231.10;2252.80
57030;DHT22;42920;45.306;20.448;2022-11-21T12:31:53;231.00;2252.80
57030;DHT22;42920;45.306;20.448;2022-11-21T12:42:19;231.10;2252.80
57030;DHT22;42920;45.306;20.448;2022-11-21T12:50:23;231.10;2252.80
57030;DHT22;42920;45.306;20.448;2022-11-21T12:53:14;231.10;2252.80
57030;DHT22;42920;45.306;20.448;2022-11-21T12:56:08;231.20;2252.80
57030;DHT22;42920;45.306;20.448;2022-11-21T12:58:35;231.20;2252.80
57030;DHT22;42920;45.306;20.448;2022-11-21T13:03:42;231.10;2252.80
57030;DHT22;42920;45.306;20.448;2022-11-21T13:06:21;231.20;2252.80
57030;DHT22;42920;45.306;20.448;2022-11-21T13:08:48;231.20;2252.80
57030;DHT22;42920;45.306;20.448;2022-11-21T13:14:08;231.30;2252.80
57030;DHT22;42920;45.306;20.448;2022-11-21T13:16:36;231.30;2252.80
57030;DHT22;42920;45.306;20.448;2022-11-21T13:19:18;256.00;2252.80
57030;DHT22;42920;45.306;20.448;2022-11-21T13:21:45;256.00;2252.80
57030;DHT22;42920;45.306;20.448;2022-11-21T13:26:57;256.00;2252.80
57030;DHT22;42920;45.306;20.448;2022-11-21T13:29:23;256.00;2252.80
57030;DHT22;42920;45.306;20.448;2022-11-21T13:31:48;231.20;2252.80
57030;DHT22;42920;45.306;20.448;2022-11-21T13:36:55;231.30;2252.80
57030;DHT22;42920;45.306;20.448;2022-11-21T13:39:24;256.00;2252.80
57030;DHT22;42920;45.306;20.448;2022-11-21T13:44:40;256.00;2252.80
57030;DHT22;42920;45.306;20.448;2022-11-21T14:02:52;256.10;2252.80
57030;DHT22;42920;45.306;20.448;2022-11-21T14:07:22;256.10;2252.80
57030;DHT22;42920;45.306;20.448;2022-11-21T14:09:49;256.10;2252.80
57030;DHT22;42920;45.306;20.448;2022-11-21T14:12:22;256.10;2252.80
57030;DHT22;42920;45.306;20.448;2022-11-21T14:14:52;256.00;2252.80
57030;DHT22;42920;45.306;20.448;2022-11-21T14:19:51;256.00;2252.80
57030;DHT22;42920;45.306;20.448;2022-11-21T14:22:35;231.30;2252.80
57030;DHT22;42920;45.306;20.448;2022-11-21T14:25:07;231.30;2252.80
57030;DHT22;42920;45.306;20.448;2022-11-21T14:27:36;231.30;2252.80
57030;DHT22;42920;45.306;20.448;2022-11-21T14:30:03;231.30;2252.80
57030;DHT22;42920;45.306;20.448;2022-11-21T14:32:29;231.30;2252.80
57030;DHT22;42920;45.306;20.448;2022-11-21T14:35:08;231.30;2252.80
57030;DHT22;42920;45.306;20.448;2022-11-21T14:37:34;231.30;2252.80
57030;DHT22;42920;45.306;20.448;2022-11-21T14:40:02;231.30;2252.80
57030;DHT22;42920;45.306;20.448;2022-11-21T14:42:33;231.30;2252.80
57030;DHT22;42920;45.306;20.448;2022-11-21T14:45:06;231.30;2252.80
57030;DHT22;42920;45.306;20.448;2022-11-21T14:47:32;231.30;2252.80
57030;DHT22;42920;45.306;20.448;2022-11-21T14:49:57;231.30;2252.80
57030;DHT22;42920;45.306;20.448;2022-11-21T14:52:27;231.30;2252.80
57030;DHT22;42920;45.306;20.448;2022-11-21T14:54:55;231.20;2252.80
57030;DHT22;42920;45.306;20.448;2022-11-21T14:57:25;231.30;2252.80
57030;DHT22;42920;45.306;20.448;2022-11-21T14:59:52;231.20;2252.80
57030;DHT22;42920;45.306;20.448;2022-11-21T15:02:19;231.20;2252.80
57030;DHT22;42920;45.306;20.448;2022-11-21T15:04:46;231.20;2252.80
57030;DHT22;42920;45.306;20.448;2022-11-21T15:07:19;231.20;2252.80
57030;DHT22;42920;45.306;20.448;2022-11-21T15:09:46;231.20;2252.80
57030;DHT22;42920;45.306;20.448;2022-11-21T15:12:12;231.20;2252.80
57030;DHT22;42920;45.306;20.448;2022-11-21T15:14:53;231.20;2252.80
57030;DHT22;42920;45.306;20.448;2022-11-21T15:17:21;231.20;2252.80
57030;DHT22;42920;45.306;20.448;2022-11-21T15:20:01;231.20;2252.80
57030;DHT22;42920;45.306;20.448;2022-11-21T15:22:29;231.20;2252.80
57030;DHT22;42920;45.306;20.448;2022-11-21T15:27:32;231.10;2252.80
57030;DHT22;42920;45.306;20.448;2022-11-21T15:35:40;231.10;2252.80
57030;DHT22;42920;45.306;20.448;2022-11-21T15:40:37;231.10;2252.80
57030;DHT22;42920;45.306;20.448;2022-11-21T15:43:03;231.10;2252.80
57030;DHT22;42920;45.306;20.448;2022-11-21T15:45:28;231.00;2252.80
57030;DHT22;42920;45.306;20.448;2022-11-21T15:47:54;231.00;2252.80
57030;DHT22;42920;45.306;20.448;2022-11-21T15:50:21;231.00;2252.80
57030;DHT22;42920;45.306;20.448;2022-11-21T15:52:47;231.00;2252.80
57030;DHT22;42920;45.306;20.448;2022-11-21T15:55:34;231.00;2252.80
57030;DHT22;42920;45.306;20.448;2022-11-21T15:57:59;231.00;2252.80
57030;DHT22;42920;45.306;20.448;2022-11-21T16:00:24;231.00;2252.80
57030;DHT22;42920;45.306;20.448;2022-11-21T16:02:50;231.00;2252.80
57030;DHT22;42920;45.306;20.448;2022-11-21T16:05:16;231.00;2252.80
57030;DHT22;42920;45.306;20.448;2022-11-21T16:07:43;230.90;2252.80
57030;DHT22;42920;45.306;20.448;2022-11-21T16:10:08;230.90;2252.80
57030;DHT22;42920;45.306;20.448;2022-11-21T16:12:34;230.90;2252.80
57030;DHT22;42920;45.306;20.448;2022-11-21T16:14:59;230.90;2252.80
57030;DHT22;42920;45.306;20.448;2022-11-21T16:17:25;230.90;2252.80
57030;DHT22;42920;45.306;20.448;2022-11-21T16:19:51;230.90;2252.80
57030;DHT22;42920;45.306;20.448;2022-11-21T16:22:16;230.90;2252.80
57030;DHT22;42920;45.306;20.448;2022-11-21T16:24:42;230.90;2252.80
57030;DHT22;42920;45.306;20.448;2022-11-21T16:27:08;230.90;2252.80
57030;DHT22;42920;45.306;20.448;2022-11-21T16:29:33;230.90;2252.80
57030;DHT22;42920;45.306;20.448;2022-11-21T16:31:59;230.90;2252.80
57030;DHT22;42920;45.306;20.448;2022-11-21T16:34:27;230.90;2252.80
57030;DHT22;42920;45.306;20.448;2022-11-21T16:36:53;230.90;2252.80
57030;DHT22;42920;45.306;20.448;2022-11-21T16:39:19;230.90;2252.80
57030;DHT22;42920;45.306;20.448;2022-11-21T16:41:44;230.90;2252.80
57030;DHT22;42920;45.306;20.448;2022-11-21T16:44:12;230.80;2252.80